Fort Severn Airport
CYER : now visible

Airfield :











YOU CAN JOIN US ON...

 
LOGIN :

Register | Disclaimer

   EN    FR    IT 

 









Legend :    VFR   Marginal VFR   IFR   Intensive IFR   Very Intensive IFR
Visi :
Ceiling :
>= 8 km
>= 3000ft
5 to 8 km
1000 to 3000 ft
1500m to 5 km
500 to 1000 ft
800 to 1500m
200 to 500 ft
< 800m
< 200 ft
Symbols :   Thunderstorms  Fog  Heavy snow  Heavy precipitations  Wind > 20 kt






- Airport Elevation : 48 ft
- IATA code : YER


CYER - Fort Severn

CURRENT METAR :
  • 151700Z AUTO 27014G24KT 9SM CLR M19/M23 A3014 RMK SLP211

EXPIRED METARs :
  • 151600Z AUTO 26015G20KT 9SM CLR M20/M23 A3011 RMK SLP201
  • 151500Z AUTO 27013G21KT 9SM CLR M20/M23 A3010 RMK SLP195

TAF TAF CYER
Valid from the 15 at 14:00 until the 15 at 20:00 UTC


151338Z 1514/1520 28015KT P6SM SKC
FM151600 27015KT P6SM SCT015
TEMPO 1516/1518 4SM -SN BKN015
FM151800 27015G25KT P6SM BKN025
TEMPO 1518/1520 4SM -SN OVC015 RMK FCST BASED ON AUTO OBS. NXT FCST WILL BE ISSUED AT 160945Z



MET'MAP, your aeronautical weather chart ! - Copyright ORBIFLY December 2007 - Disclaimer

ORBIFLY MET'MAP TEAM :

Programming & Development : Alexandra Zaïnal
Concept & Development : Baudouin d'Aumeries
Co-Development & Prog : Marc-Olivier Méhu
Technical & hardware support : Manuel Goepfert

Contact : metmap@orbifly.com




SOURCES & CREDITS :

   NOAA       Earth
Advisory